Time;durP1;ratioP1;P1;durP2;ratioP2;P2;SDS_P1;SDS_P2;PMS_P1;PMS_P2;Temp;Humidity;BMP_temperature;BMP_pressure;BME280_temperature;BME280_humidity;BME280_pressure;Samples;Min_cycle;Max_cycle;Signal;HPM_P1;HPM_P2
2021/05/25 00:01:33;;;;;;;1.52;0.45;;;;;;;6.86;80.62;100017.66;6237272;22;20030;-78
2021/05/25 00:03:59;;;;;;;2.47;0.55;;;;;;;6.75;79.71;100001.19;6259630;22;20701;-80
2021/05/25 00:06:27;;;;;;;2.30;0.77;;;;;;;6.79;81.02;100015.94;6258826;22;20004;-80
2021/05/25 00:09:01;;;;;;;11.95;1.38;;;;;;;6.78;80.86;100022.44;6260862;22;19999;-78
2021/05/25 00:11:30;;;;;;;2.28;0.40;;;;;;;6.75;81.07;100033.81;6258322;22;20498;-79
2021/05/25 00:14:05;;;;;;;;;;;;;;;;;;;;;
2021/05/25 00:16:31;;;;;;;0.50;0.47;;;;;;;6.75;81.66;100035.72;6288197;22;20031;-80
2021/05/25 00:18:59;;;;;;;8.55;0.63;;;;;;;6.76;81.43;100040.91;6260077;22;20010;-79
2021/05/25 00:21:25;;;;;;;2.88;0.70;;;;;;;6.61;81.96;100024.38;6287046;22;20410;-79
2021/05/25 00:23:51;;;;;;;1.75;0.68;;;;;;;6.61;81.73;100016.22;6255563;22;20020;-79
2021/05/25 00:26:25;;;;;;;4.45;0.85;;;;;;;6.51;81.20;100014.16;6258324;22;20000;-80
2021/05/25 00:28:51;;;;;;;2.83;0.90;;;;;;;6.57;81.90;100020.50;6235110;22;20037;-78
2021/05/25 00:31:17;;;;;;;7.03;0.90;;;;;;;6.65;81.97;100039.09;6257755;22;20025;-76
2021/05/25 00:33:45;;;;;;;3.10;0.65;;;;;;;6.69;82.04;100045.69;6260043;22;20027;-81
2021/05/25 00:36:21;;;;;;;;;;;;;;;;;;;;;
2021/05/25 00:38:49;;;;;;;4.85;0.85;;;;;;;6.66;81.75;100062.50;6287897;22;20065;-81
2021/05/25 00:41:22;;;;;;;15.95;1.20;;;;;;;6.58;82.13;100044.69;6283240;22;20092;-79
2021/05/25 00:43:48;;;;;;;3.03;0.93;;;;;;;6.65;81.49;100055.41;6286905;22;19996;-79
2021/05/25 00:46:14;;;;;;;2.50;0.93;;;;;;;6.64;81.49;100054.59;6260208;22;20003;-80
2021/05/25 00:48:40;;;;;;;7.45;1.88;;;;;;;6.60;81.88;100049.88;6232521;22;20037;-79
2021/05/25 00:51:06;;;;;;;7.03;0.98;;;;;;;6.61;82.43;100057.81;6236776;22;20008;-80
2021/05/25 00:53:35;;;;;;;3.70;0.85;;;;;;;6.60;82.71;100063.47;6262923;22;20067;-79
2021/05/25 00:56:04;;;;;;;8.20;0.88;;;;;;;6.61;81.96;100057.81;6260955;22;19999;-80
2021/05/25 00:58:33;;;;;;;4.22;0.45;;;;;;;6.39;82.40;100027.84;6255414;22;20053;-79
2021/05/25 01:00:59;;;;;;;12.32;1.30;;;;;;;6.54;82.91;100053.59;6287349;22;20082;-79
2021/05/25 01:03:24;;;;;;;6.45;0.75;;;;;;;6.55;82.76;100064.22;6229315;22;20019;-80
2021/05/25 01:05:50;;;;;;;8.68;0.80;;;;;;;6.60;82.37;100079.75;6257841;22;20007;-80
2021/05/25 01:08:18;;;;;;;0.45;0.22;;;;;;;6.58;83.17;100080.00;6285384;22;19999;-80
2021/05/25 01:11:07;;;;;;;4.32;0.65;;;;;;;6.61;84.08;100092.28;6225339;22;20014;-78
2021/05/25 01:13:44;;;;;;;6.43;0.90;;;;;;;6.61;83.54;100081.41;6278440;22;20011;-80
2021/05/25 01:16:10;;;;;;;9.30;0.93;;;;;;;6.54;83.47;100069.91;6281665;22;20074;-80
2021/05/25 01:18:36;;;;;;;8.25;0.65;;;;;;;6.62;83.50;100078.44;6250961;22;20063;-80
2021/05/25 01:21:05;;;;;;;1.65;0.60;;;;;;;6.64;84.05;100079.03;6253044;22;20038;-79
2021/05/25 01:23:34;;;;;;;9.18;1.70;;;;;;;6.68;83.27;100078.53;6255022;22;20071;-82
2021/05/25 01:26:01;;;;;;;11.05;0.93;;;;;;;6.56;83.35;100056.91;6242452;22;20014;-83
2021/05/25 01:28:28;;;;;;;7.72;1.33;;;;;;;6.66;83.16;100077.94;6262362;22;20322;-82
2021/05/25 01:30:56;;;;;;;8.60;0.60;;;;;;;6.59;83.18;100067.28;6263852;22;19996;-83
2021/05/25 01:33:42;;;;;;;;;;;;;;;;;;;;;
2021/05/25 01:36:08;;;;;;;3.33;0.90;;;;;;;6.69;83.47;100089.16;6284106;22;20026;-78
2021/05/25 01:38:45;;;;;;;4.35;1.17;;;;;;;6.60;82.92;100082.47;6256759;22;20004;-78
2021/05/25 01:41:12;;;;;;;6.43;0.88;;;;;;;6.57;83.10;100077.53;6265355;22;20014;-82
2021/05/25 01:43:41;;;;;;;11.13;1.00;;;;;;;6.66;83.73;100083.38;6287181;22;19996;-81
2021/05/25 01:46:17;;;;;;;5.13;1.40;;;;;;;6.66;83.59;100084.22;6254407;22;20022;-83
2021/05/25 01:48:57;;;;;;;6.40;1.10;;;;;;;6.54;83.58;100064.47;6233007;22;20027;-81
2021/05/25 01:51:27;;;;;;;9.07;1.30;;;;;;;6.62;83.95;100073.03;6280541;22;20053;-79
2021/05/25 01:53:54;;;;;;;6.35;0.45;;;;;;;6.67;82.99;100076.88;6239364;22;20000;-81
2021/05/25 01:56:19;;;;;;;9.95;1.38;;;;;;;6.75;83.89;100109.91;6292959;22;20055;-82
2021/05/25 01:58:53;;;;;;;10.57;1.10;;;;;;;6.54;83.37;100083.47;6262245;22;20003;-81
2021/05/25 02:01:23;;;;;;;5.68;1.90;;;;;;;6.52;83.71;100077.47;6234952;22;20034;-79
2021/05/25 02:03:51;;;;;;;3.40;0.55;;;;;;;6.56;83.67;100084.06;6254047;22;20082;-78
2021/05/25 02:06:19;;;;;;;9.18;1.20;;;;;;;6.70;83.34;100112.56;6280396;22;20086;-78
2021/05/25 02:08:47;;;;;;;3.47;1.30;;;;;;;6.68;83.95;100113.88;6257981;22;20079;-78
2021/05/25 02:11:15;;;;;;;7.90;1.30;;;;;;;6.60;84.38;100096.06;6292350;22;19995;-78
2021/05/25 02:13:43;;;;;;;8.48;1.13;;;;;;;6.57;84.25;100102.00;6282703;22;20018;-79
2021/05/25 02:16:14;;;;;;;17.73;1.40;;;;;;;6.66;83.27;100116.84;6250494;22;20008;-79
2021/05/25 02:18:49;;;;;;;2.58;0.80;;;;;;;6.61;83.11;100109.44;6283278;22;20015;-78
2021/05/25 02:21:19;;;;;;;4.75;0.88;;;;;;;6.53;82.94;100117.16;6270118;22;19999;-78
2021/05/25 02:23:46;;;;;;;4.55;0.65;;;;;;;6.56;83.61;100116.69;6298824;22;20070;-79
2021/05/25 02:26:12;;;;;;;11.90;1.40;;;;;;;6.53;82.92;100114.47;6272669;22;20019;-78
2021/05/25 02:28:43;;;;;;;3.42;1.02;;;;;;;6.57;83.42;100121.03;6249457;22;20029;-81
2021/05/25 02:31:09;;;;;;;4.05;0.93;;;;;;;6.52;82.83;100104.66;6302354;22;20150;-80
2021/05/25 02:33:43;;;;;;;7.88;0.70;;;;;;;6.52;83.40;100115.50;6277087;22;19991;-80
2021/05/25 02:36:16;;;;;;;7.65;1.00;;;;;;;6.29;82.67;100079.28;6270605;22;20015;-80
2021/05/25 02:38:50;;;;;;;4.95;1.05;;;;;;;6.31;82.82;100104.31;6238728;22;20014;-81
2021/05/25 02:41:24;;;;;;;7.28;0.90;;;;;;;6.27;83.13;100098.53;6226876;23;20009;-81
2021/05/25 02:44:00;;;;;;;;;;;;;;;;;;;;;
2021/05/25 02:46:26;;;;;;;2.47;0.98;;;;;;;6.33;83.09;100093.19;6256419;23;20020;-81
2021/05/25 02:48:57;;;;;;;3.72;0.77;;;;;;;6.41;83.20;100109.06;6232257;23;20004;-82
2021/05/25 02:51:24;;;;;;;3.53;0.95;;;;;;;6.35;83.18;100099.19;6207730;23;20005;-82
2021/05/25 02:53:50;;;;;;;11.25;1.38;;;;;;;6.24;83.91;100088.16;6232381;23;20008;-83
2021/05/25 02:56:16;;;;;;;2.08;0.95;;;;;;;6.33;83.99;100096.72;6230099;23;20382;-83
2021/05/25 02:58:49;;;;;;;5.57;0.85;;;;;;;6.28;84.34;100083.09;6255408;23;20018;-80
2021/05/25 03:01:24;;;;;;;;;;;;;;;;;;;;;
2021/05/25 03:03:50;;;;;;;7.25;1.13;;;;;;;6.43;84.16;100112.38;6255869;23;20035;-80
2021/05/25 03:06:25;;;;;;;5.95;1.25;;;;;;;6.49;84.61;100119.53;6254016;23;20003;-79
2021/05/25 03:08:50;;;;;;;4.20;0.73;;;;;;;6.47;84.48;100108.94;6221535;23;20062;-78
2021/05/25 03:11:16;;;;;;;3.90;0.80;;;;;;;6.47;84.12;100106.22;6252223;23;20226;-77
2021/05/25 03:13:41;;;;;;;9.57;0.98;;;;;;;6.52;84.22;100126.38;6226842;23;20079;-77
2021/05/25 03:16:09;;;;;;;6.20;0.88;;;;;;;6.38;83.72;100110.41;6252670;23;20486;-78
2021/05/25 03:18:35;;;;;;;1.55;0.93;;;;;;;6.34;84.58;100098.38;6176786;23;20008;-77
2021/05/25 03:21:00;;;;;;;3.30;1.38;;;;;;;6.51;83.95;100130.97;6197884;23;20338;-77
2021/05/25 03:23:29;;;;;;;5.80;1.27;;;;;;;6.51;83.65;100128.25;6204088;23;20011;-78
2021/05/25 03:25:56;;;;;;;0.82;0.50;;;;;;;6.49;84.78;100126.88;6228012;23;20080;-77
2021/05/25 03:28:22;;;;;;;5.63;1.40;;;;;;;6.45;84.21;100121.94;6254725;23;20019;-78
2021/05/25 03:30:47;;;;;;;6.05;0.88;;;;;;;6.53;84.20;100138.91;6205493;23;20000;-79
2021/05/25 03:33:13;;;;;;;2.40;0.70;;;;;;;6.44;84.19;100120.28;6203526;23;20014;-78
2021/05/25 03:35:42;;;;;;;1.23;0.80;;;;;;;6.41;84.44;100120.78;6231374;23;20011;-79
2021/05/25 03:38:27;;;;;;;3.22;0.70;;;;;;;6.41;84.56;100131.66;6262380;23;20003;-77
2021/05/25 03:40:55;;;;;;;17.77;2.03;;;;;;;6.38;84.65;100126.72;6260661;22;20000;-79
2021/05/25 03:43:20;;;;;;;4.03;1.02;;;;;;;6.42;84.09;100144.13;6237774;23;20008;-80
2021/05/25 03:45:46;;;;;;;1.30;0.70;;;;;;;6.42;84.51;100138.69;6228933;23;20472;-82
2021/05/25 03:48:17;;;;;;;11.00;0.93;;;;;;;6.44;84.72;100142.00;6231546;23;20012;-77
2021/05/25 03:50:45;;;;;;;3.33;0.88;;;;;;;6.37;84.62;100135.91;6248612;23;20000;-81
2021/05/25 03:53:11;;;;;;;4.57;0.93;;;;;;;6.50;84.96;100144.81;6254879;22;19996;-81
2021/05/25 03:55:49;;;;;;;3.63;1.17;;;;;;;6.57;84.77;100154.47;6225092;23;20034;-81
2021/05/25 04:00:58;;;;;;;4.93;1.15;;;;;;;6.66;84.73;100154.88;6246543;23;20170;-79
2021/05/25 04:03:24;;;;;;;8.07;1.13;;;;;;;6.64;84.57;100154.28;6246852;23;20004;-79
2021/05/25 04:05:50;;;;;;;3.55;0.93;;;;;;;6.64;85.00;100146.13;6244594;23;20011;-78
2021/05/25 04:08:17;;;;;;;4.90;0.88;;;;;;;6.71;84.55;100156.84;6225090;23;20419;-80
2021/05/25 04:10:43;;;;;;;4.82;0.75;;;;;;;6.67;84.29;100150.25;6246673;23;20003;-80
2021/05/25 04:13:08;;;;;;;3.97;1.00;;;;;;;6.66;84.40;100149.44;6249597;22;20011;-78
2021/05/25 04:15:34;;;;;;;7.13;0.82;;;;;;;6.66;84.68;100164.91;6223716;23;20330;-80
2021/05/25 04:18:01;;;;;;;7.35;0.73;;;;;;;6.65;84.03;100169.53;6248353;23;20030;-79
2021/05/25 04:20:27;;;;;;;3.10;0.90;;;;;;;6.66;84.97;100171.19;6246727;23;20031;-79
2021/05/25 04:22:52;;;;;;;3.00;0.55;;;;;;;6.66;84.78;100171.19;6250784;23;20008;-79
2021/05/25 04:25:18;;;;;;;4.90;0.60;;;;;;;6.66;84.70;100182.06;6243053;23;20207;-79
2021/05/25 04:27:43;;;;;;;3.67;1.00;;;;;;;6.67;85.16;100172.00;6222621;23;20034;-80
2021/05/25 04:30:09;;;;;;;3.75;1.20;;;;;;;6.66;84.51;100173.06;6248729;23;20323;-79
2021/05/25 04:32:36;;;;;;;2.92;0.85;;;;;;;6.69;84.54;100181.56;6222009;23;20004;-79
2021/05/25 04:35:02;;;;;;;3.40;0.60;;;;;;;6.69;84.56;100188.88;6240752;23;20010;-78
2021/05/25 04:37:32;;;;;;;8.50;1.38;;;;;;;6.60;85.09;100178.41;6247538;23;20031;-78
2021/05/25 04:39:58;;;;;;;1.05;0.40;;;;;;;6.68;84.57;100182.63;6248607;22;20442;-78
2021/05/25 04:42:26;;;;;;;5.25;1.42;;;;;;;6.72;84.53;100186.50;6249231;23;20004;-79
2021/05/25 04:44:51;;;;;;;3.38;0.93;;;;;;;6.70;84.36;100177.78;6248080;23;20039;-79
2021/05/25 04:47:17;;;;;;;4.78;0.80;;;;;;;6.77;84.60;100185.75;6249341;23;20710;-80
2021/05/25 04:49:44;;;;;;;8.77;1.15;;;;;;;6.84;85.17;100200.00;6250000;22;20068;-79
2021/05/25 04:52:13;;;;;;;9.30;1.10;;;;;;;6.73;84.98;100171.84;6245471;23;20067;-80
2021/05/25 04:54:56;;;;;;;1.10;0.63;;;;;;;6.89;84.98;100182.94;6225948;23;20339;-80
2021/05/25 04:57:25;;;;;;;9.10;1.00;;;;;;;7.06;84.42;100196.53;6246841;23;20011;-80
2021/05/25 04:59:51;;;;;;;2.42;0.77;;;;;;;7.00;84.56;100173.88;6251884;22;20004;-83
2021/05/25 05:02:19;;;;;;;6.72;0.90;;;;;;;7.14;84.34;100183.34;6250031;23;20142;-84
2021/05/25 05:04:47;;;;;;;10.55;1.50;;;;;;;7.28;85.23;100193.88;6252160;23;20396;-83
2021/05/25 05:07:13;;;;;;;6.80;1.20;;;;;;;7.50;84.69;100202.06;6259203;23;20053;-83
2021/05/25 05:09:41;;;;;;;7.20;0.90;;;;;;;7.42;84.58;100178.84;6269219;22;20008;-81
2021/05/25 05:12:15;;;;;;;5.50;0.93;;;;;;;7.74;85.12;100213.56;6268690;22;20143;-80
2021/05/25 05:14:40;;;;;;;8.38;1.02;;;;;;;7.73;83.74;100179.25;6262096;23;20058;-83
2021/05/25 05:17:17;;;;;;;11.13;0.90;;;;;;;7.77;83.60;100177.69;6253910;23;20000;-83
2021/05/25 05:20:10;;;;;;;;;;;;;;;;;;;;;
2021/05/25 05:22:44;;;;;;;6.00;1.48;;;;;;;7.88;84.02;100188.69;6251527;23;20022;-81
2021/05/25 05:25:12;;;;;;;6.10;1.83;;;;;;;7.86;83.23;100184.31;6254011;23;19999;-83
2021/05/25 05:27:38;;;;;;;2.75;1.02;;;;;;;7.97;83.55;100204.34;6253970;23;20060;-83
2021/05/25 05:30:05;;;;;;;6.25;1.20;;;;;;;8.01;83.50;100210.06;6252300;22;19996;-80
2021/05/25 05:32:31;;;;;;;3.50;1.08;;;;;;;7.98;83.62;100207.88;6200704;23;20019;-80
2021/05/25 05:34:58;;;;;;;4.93;1.58;;;;;;;8.15;84.26;100229.59;6244377;22;20027;-80
2021/05/25 05:37:29;;;;;;;7.15;1.45;;;;;;;8.21;84.30;100221.22;6252015;22;20600;-80
2021/05/25 05:39:59;;;;;;;2.97;1.35;;;;;;;8.32;83.47;100218.59;6219048;23;20016;-80
2021/05/25 05:42:25;;;;;;;4.20;1.65;;;;;;;8.46;83.30;100227.22;6222405;23;20015;-78
2021/05/25 05:44:53;;;;;;;3.72;1.33;;;;;;;8.47;83.33;100226.97;6245589;23;20323;-79
2021/05/25 05:47:21;;;;;;;5.88;2.33;;;;;;;8.54;83.35;100224.88;6242718;23;20162;-75
2021/05/25 05:49:56;;;;;;;;;;;;;;;;;;;;;
2021/05/25 05:52:24;;;;;;;17.63;2.53;;;;;;;8.82;82.87;100225.66;6241281;23;20081;-76
2021/05/25 05:54:53;;;;;;;10.88;2.53;;;;;;;9.03;83.62;100239.47;6245713;22;20035;-87
2021/05/25 05:57:20;;;;;;;4.63;2.13;;;;;;;9.17;83.25;100256.22;6217037;23;20091;-77
2021/05/25 05:59:46;;;;;;;12.70;2.60;;;;;;;9.09;82.37;100216.59;6247347;22;20000;-77
2021/05/25 06:05:30;;;;;;;3.22;1.50;;;;;;;9.39;82.06;100231.56;6247764;22;20019;-80
2021/05/25 06:08:05;;;;;;;15.32;2.50;;;;;;;9.41;80.82;100243.03;6245530;23;20087;-78
2021/05/25 06:10:33;;;;;;;7.27;2.17;;;;;;;9.61;80.75;100258.72;6243835;23;20012;-80
2021/05/25 06:12:59;;;;;;;5.97;2.20;;;;;;;9.54;81.16;100253.50;6245761;23;20248;-78
2021/05/25 06:15:27;;;;;;;3.85;1.65;;;;;;;9.52;79.97;100252.94;6221927;23;20012;-78
2021/05/25 06:17:55;;;;;;;7.70;1.33;;;;;;;9.65;80.21;100256.28;6224915;23;20006;-78
2021/05/25 06:20:23;;;;;;;6.95;2.17;;;;;;;9.67;80.03;100248.66;6249339;22;20000;-79
2021/05/25 06:22:51;;;;;;;10.30;2.22;;;;;;;9.71;79.79;100272.44;6197821;23;20526;-80
2021/05/25 06:25:17;;;;;;;11.93;2.10;;;;;;;9.66;79.65;100264.19;6251767;23;20000;-79
2021/05/25 06:27:46;;;;;;;11.15;2.55;;;;;;;9.63;79.68;100264.72;6250418;23;20031;-79
2021/05/25 06:30:22;;;;;;;7.50;1.83;;;;;;;9.74;79.54;100273.81;6249349;22;19997;-81
2021/05/25 06:32:47;;;;;;;7.32;2.28;;;;;;;9.71;80.13;100277.06;6249430;23;20000;-77
2021/05/25 06:35:16;;;;;;;12.60;1.63;;;;;;;9.70;79.14;100267.25;6243246;23;20031;-75
2021/05/25 06:37:42;;;;;;;5.25;1.45;;;;;;;9.92;79.75;100284.28;6243368;23;20008;-78
2021/05/25 06:40:11;;;;;;;8.82;1.30;;;;;;;10.09;78.95;100299.66;6221849;22;20023;-78
2021/05/25 06:42:37;;;;;;;9.65;2.03;;;;;;;9.95;78.02;100285.69;6247439;23;20066;-79
2021/05/25 06:45:09;;;;;;;5.00;1.50;;;;;;;9.88;77.48;100296.81;6248837;23;20087;-79
2021/05/25 06:47:38;;;;;;;7.53;1.42;;;;;;;10.04;78.10;100303.19;6222753;23;20015;-78
2021/05/25 06:50:07;;;;;;;8.38;1.63;;;;;;;10.19;78.02;100305.19;6247015;22;20428;-76
2021/05/25 06:52:34;;;;;;;8.20;1.45;;;;;;;10.18;77.77;100286.31;6219548;23;20004;-77
2021/05/25 06:55:01;;;;;;;4.75;1.20;;;;;;;10.42;78.04;100308.59;6245442;23;20008;-78
2021/05/25 06:57:35;;;;;;;6.00;1.15;;;;;;;10.39;77.36;100288.06;6223738;23;20334;-79
2021/05/25 07:00:04;;;;;;;1.83;1.02;;;;;;;10.52;75.96;100314.09;6241502;23;20028;-78
2021/05/25 07:02:49;;;;;;;7.68;1.15;;;;;;;10.70;76.41;100315.50;6204443;23;20023;-76
2021/05/25 07:05:15;;;;;;;5.13;1.20;;;;;;;10.72;75.74;100307.03;6223505;23;20008;-76
2021/05/25 07:07:48;;;;;;;5.15;0.68;;;;;;;10.75;74.28;100315.53;6245172;23;20026;-78
2021/05/25 07:10:34;;;;;;;4.70;0.80;;;;;;;10.87;73.99;100323.50;6251616;23;20007;-79
2021/05/25 07:13:15;;;;;;;;;;;;;;;;;;;;;
2021/05/25 07:15:44;;;;;;;1.88;0.88;;;;;;;10.91;72.35;100321.84;6232015;23;20028;-81
2021/05/25 07:21:25;;;;;;;2.03;0.63;;;;;;;11.24;71.63;100319.69;6240236;22;20497;-78
2021/05/25 07:23:57;;;;;;;6.32;1.13;;;;;;;11.48;70.23;100336.41;6252005;23;20008;-78
2021/05/25 07:26:41;;;;;;;10.95;1.02;;;;;;;11.73;68.80;100320.25;6252156;22;20022;-78
2021/05/25 07:29:14;;;;;;;6.53;1.10;;;;;;;11.98;69.12;100347.59;6250651;23;20026;-78
2021/05/25 07:31:47;;;;;;;1.67;1.45;;;;;;;11.91;68.13;100349.78;6250321;22;20007;-77
2021/05/25 07:34:18;;;;;;;2.17;1.08;;;;;;;11.76;67.67;100341.59;6248714;23;20000;-79
2021/05/25 07:36:47;;;;;;;2.78;0.90;;;;;;;11.66;67.64;100345.16;6228271;23;20003;-78
2021/05/25 07:39:16;;;;;;;4.35;1.10;;;;;;;11.72;68.17;100351.47;6252277;22;20051;-78
2021/05/25 07:41:46;;;;;;;3.42;0.95;;;;;;;11.72;68.75;100354.19;6254436;22;20026;-78
2021/05/25 07:44:12;;;;;;;2.53;1.30;;;;;;;11.67;67.91;100347.63;6255469;22;20007;-78
2021/05/25 07:46:56;;;;;;;3.85;1.10;;;;;;;11.74;69.07;100352.84;6256913;22;20007;-79
2021/05/25 07:49:24;;;;;;;2.35;1.45;;;;;;;11.80;68.25;100356.41;6227822;22;20018;-78
2021/05/25 07:51:50;;;;;;;5.22;1.25;;;;;;;11.89;67.49;100365.69;6245888;22;20008;-79
2021/05/25 07:54:19;;;;;;;6.18;1.08;;;;;;;11.88;68.48;100367.63;6252623;22;20053;-77
2021/05/25 07:56:47;;;;;;;2.40;0.90;;;;;;;11.77;66.50;100344.06;6257845;22;20010;-76
2021/05/25 07:59:29;;;;;;;3.15;1.25;;;;;;;11.91;67.84;100352.53;6281651;22;20003;-78
2021/05/25 08:02:04;;;;;;;1.73;1.02;;;;;;;11.86;66.42;100347.06;6286206;22;20038;-78
2021/05/25 08:04:38;;;;;;;4.70;0.80;;;;;;;11.86;65.23;100352.53;6257897;22;20062;-77
2021/05/25 08:07:27;;;;;;;11.43;1.73;;;;;;;11.83;65.47;100336.66;6257293;22;20007;-78
2021/05/25 08:10:02;;;;;;;7.05;1.30;;;;;;;11.89;66.56;100346.50;6257107;22;20053;-78
2021/05/25 08:12:33;;;;;;;10.95;1.23;;;;;;;11.83;65.70;100336.66;6283178;22;20003;-77
2021/05/25 08:15:05;;;;;;;2.08;0.98;;;;;;;11.95;65.28;100348.16;6229844;22;20038;-77
2021/05/25 08:20:15;;;;;;;2.80;1.05;;;;;;;11.93;65.66;100358.59;6287999;22;20042;-78
2021/05/25 08:23:00;;;;;;;3.63;0.70;;;;;;;12.07;64.11;100385.41;6250946;22;20008;-78
2021/05/25 08:25:31;;;;;;;4.82;0.90;;;;;;;12.03;65.45;100377.75;6250780;22;20373;-77
2021/05/25 08:28:06;;;;;;;3.55;1.23;;;;;;;12.13;65.24;100378.81;6222895;22;20003;-77
2021/05/25 08:30:53;;;;;;;6.78;0.88;;;;;;;12.12;64.13;100385.41;6228286;22;20365;-77
2021/05/25 08:33:41;;;;;;;5.18;0.60;;;;;;;12.10;62.51;100379.38;6240131;22;20011;-79
2021/05/25 08:39:07;;;;;;;1.48;1.00;;;;;;;12.47;62.13;100411.09;6253817;22;20004;-79
2021/05/25 08:41:34;;;;;;;1.45;0.77;;;;;;;12.70;62.22;100388.53;6278783;22;20035;-77
2021/05/25 08:44:03;;;;;;;0.95;0.65;;;;;;;12.99;60.63;100396.03;6243473;22;20012;-78
2021/05/25 08:46:32;;;;;;;2.42;1.00;;;;;;;13.27;60.63;100408.25;6224322;22;20045;-79
2021/05/25 08:49:01;;;;;;;4.53;0.77;;;;;;;13.58;59.36;100401.72;6245825;22;20000;-79
2021/05/25 08:51:30;;;;;;;6.82;1.45;;;;;;;13.61;56.85;100396.50;6253260;22;20018;-78
2021/05/25 08:54:04;;;;;;;2.25;0.60;;;;;;;13.80;57.72;100404.03;6254059;22;20043;-78
2021/05/25 08:56:33;;;;;;;2.67;0.60;;;;;;;14.00;56.67;100422.25;6252036;22;20003;-79
2021/05/25 08:58:59;;;;;;;1.60;0.98;;;;;;;14.04;56.91;100404.09;6255576;22;20529;-80
2021/05/25 09:01:34;;;;;;;4.13;0.73;;;;;;;14.31;56.14;100419.22;6230329;22;20098;-80
2021/05/25 09:04:09;;;;;;;1.95;0.60;;;;;;;14.23;56.08;100439.13;6282711;22;20069;-80
2021/05/25 09:07:08;;;;;;;5.57;0.75;;;;;;;14.10;56.14;100408.41;6257147;22;20008;-79
2021/05/25 09:09:57;;;;;;;3.25;0.57;;;;;;;14.06;53.49;100425.78;6229063;22;20019;-78
2021/05/25 09:12:49;;;;;;;1.80;0.50;;;;;;;14.09;53.16;100426.03;6257652;22;20027;-79
2021/05/25 09:15:31;;;;;;;4.63;0.43;;;;;;;14.07;52.38;100409.00;6255358;22;20019;-78
2021/05/25 09:18:08;;;;;;;4.22;0.52;;;;;;;14.49;51.67;100414.91;6249201;22;20090;-78
2021/05/25 09:20:52;;;;;;;0.93;0.40;;;;;;;14.91;52.01;100421.59;6251265;22;20337;-78
2021/05/25 09:23:43;;;;;;;1.48;0.35;;;;;;;15.01;52.27;100421.44;6246434;22;20010;-78
2021/05/25 09:26:32;;;;;;;2.15;0.52;;;;;;;14.94;51.33;100422.94;6257353;22;20004;-78
2021/05/25 09:29:06;;;;;;;2.95;0.75;;;;;;;14.71;48.82;100422.66;6279782;22;19999;-78
2021/05/25 09:31:42;;;;;;;0.85;0.40;;;;;;;14.53;50.55;100420.63;6254813;22;19999;-80
2021/05/25 09:34:20;;;;;;;;;;;;;;;;;;;;;
2021/05/25 09:37:09;;;;;;;1.35;0.47;;;;;;;15.04;51.01;100413.69;6285213;22;20023;-79
2021/05/25 09:39:41;;;;;;;1.30;0.45;;;;;;;15.69;49.02;100424.03;6250368;22;20008;-79
2021/05/25 09:42:12;;;;;;;2.53;0.50;;;;;;;15.97;47.96;100413.13;6250381;22;20418;-77
2021/05/25 09:44:56;;;;;;;2.72;0.35;;;;;;;16.18;47.35;100424.63;6277958;22;20003;-79
2021/05/25 09:47:37;;;;;;;1.92;1.10;;;;;;;16.54;46.00;100435.81;6251427;22;20410;-79
2021/05/25 09:50:33;;;;;;;2.03;0.50;;;;;;;16.88;45.49;100420.78;6278149;22;19999;-77
2021/05/25 09:53:12;;;;;;;1.55;0.70;;;;;;;16.82;43.43;100448.78;6249787;22;20413;-80
2021/05/25 09:56:06;;;;;;;;;;;;;;;;;;;;;
2021/05/25 09:58:44;;;;;;;2.00;0.47;;;;;;;17.66;42.89;100428.16;6276642;22;20027;-81
2021/05/25 10:01:09;;;;;;;5.47;0.70;;;;;;;17.95;41.91;100430.50;6257401;22;20004;-79
2021/05/25 10:04:07;;;;;;;;;;;;;;;;;;;;;
2021/05/25 10:07:06;;;;;;;;;;;;;;;;;;;;;
2021/05/25 10:10:02;;;;;;;2.42;0.70;;;;;;;16.56;46.51;100441.84;6283232;22;20030;-80
2021/05/25 10:12:47;;;;;;;3.17;0.30;;;;;;;16.88;47.45;100442.88;6254373;22;20015;-79
2021/05/25 10:15:35;;;;;;;1.95;0.40;;;;;;;18.34;44.98;100441.97;6233958;22;20469;-78
2021/05/25 10:18:27;;;;;;;;;;;;;;;;;;;;;
2021/05/25 10:20:52;;;;;;;;;;;;;;;18.40;42.31;100456.47;6277496;22;20003;-78
2021/05/25 10:23:32;;;;;;;0.95;0.70;;;;;;;18.17;42.31;100445.44;6255190;22;19903;-78
2021/05/25 10:26:00;;;;;;;0.82;0.55;;;;;;;17.87;42.29;100467.22;6252961;22;20003;-77
2021/05/25 10:28:34;;;;;;;4.15;0.93;;;;;;;17.32;42.93;100456.31;6282347;22;20000;-77
2021/05/25 10:31:12;;;;;;;;;;;;;;;;;;;;;
2021/05/25 10:33:38;;;;;;;1.67;0.90;;;;;;;18.91;38.92;100455.09;6280920;22;20097;-78
2021/05/25 10:36:06;;;;;;;1.00;0.40;;;;;;;18.90;39.49;100452.63;6254690;22;20788;-78
2021/05/25 10:38:47;;;;;;;0.73;0.40;;;;;;;18.57;39.50;100464.03;6253194;22;20014;-77
2021/05/25 10:44:59;;;;;;;0.40;0.35;;;;;;;17.68;40.79;100448.00;6270208;22;20006;-77
2021/05/25 10:47:35;;;;;;;1.45;0.40;;;;;;;17.85;43.25;100463.91;6286653;22;20095;-77
2021/05/25 10:50:34;;;;;;;1.42;0.47;;;;;;;18.29;43.11;100456.72;6259114;22;20006;-76
2021/05/25 10:52:59;;;;;;;0.95;0.30;;;;;;;19.10;40.88;100468.66;6256967;22;20069;-77
2021/05/25 10:55:52;;;;;;;2.55;0.50;;;;;;;19.43;39.10;100464.63;6255659;22;20415;-76
2021/05/25 10:58:28;;;;;;;2.10;0.32;;;;;;;19.17;38.09;100469.00;6258590;22;20019;-76
2021/05/25 11:01:14;;;;;;;2.10;0.47;;;;;;;19.56;38.44;100471.16;6286539;22;20004;-76
2021/05/25 11:03:45;;;;;;;4.43;0.68;;;;;;;19.71;37.58;100468.72;6240582;22;20015;-76
2021/05/25 11:06:38;;;;;;;0.98;0.45;;;;;;;18.92;37.69;100455.88;6254370;22;20068;-77
2021/05/25 11:09:33;;;;;;;1.70;1.10;;;;;;;19.36;37.31;100470.63;6255749;22;20019;-75
2021/05/25 11:12:28;;;;;;;3.80;0.60;;;;;;;18.71;37.41;100466.72;6208477;22;20428;-75
2021/05/25 11:15:19;;;;;;;0.95;0.28;;;;;;;18.05;39.31;100453.53;6251177;22;20007;-76
2021/05/25 11:17:58;;;;;;;;;;;;;;;;;;;;;
2021/05/25 11:24:29;;;;;;;;;;;;;;;;;;;;;
2021/05/25 11:31:21;;;;;;;;;;;;;;;;;;;;;
2021/05/25 12:36:21;;;;;;;3.47;0.60;;;;;;;22.76;30.57;100471.91;6224616;22;1627736;-76
2021/05/25 12:39:25;;;;;;;;;;;;;;;;;;;;;
2021/05/25 12:42:23;;;;;;;2.88;0.95;;;;;;;20.73;33.91;100466.44;6259206;22;20391;-74
2021/05/25 12:45:14;;;;;;;1.75;0.50;;;;;;;19.41;36.84;100426.13;6284302;22;20425;-74
2021/05/25 12:48:16;;;;;;;;;;;;;;;;;;;;;
2021/05/25 12:50:47;;;;;;;1.10;0.50;;;;;;;18.46;39.64;100455.22;6284834;22;20091;-76
2021/05/25 12:53:27;;;;;;;;;;;;;;;;;;;;;
2021/05/25 12:55:53;;;;;;;2.78;0.70;;;;;;;17.35;43.38;100453.75;6286067;22;20110;-76
2021/05/25 12:58:44;;;;;;;3.17;0.80;;;;;;;17.07;44.68;100455.78;6281897;22;20038;-76
2021/05/25 13:01:45;;;;;;;0.75;0.60;;;;;;;17.19;45.18;100442.22;6282991;22;20000;-75
2021/05/25 13:04:20;;;;;;;3.78;0.73;;;;;;;18.39;43.66;100444.59;6281580;22;20011;-75
2021/05/25 13:06:52;;;;;;;3.60;0.70;;;;;;;18.95;41.12;100422.84;6283852;22;20000;-75
2021/05/25 13:10:06;;;;;;;3.30;0.60;;;;;;;18.86;38.42;100413.66;6283639;22;20018;-76
2021/05/25 13:12:45;;;;;;;;;;;;;;;;;;;;;
2021/05/25 13:15:37;;;;;;;1.08;0.57;;;;;;;17.59;43.30;100417.53;6290574;22;20038;-75
2021/05/25 13:18:10;;;;;;;2.45;0.85;;;;;;;17.25;44.14;100451.22;6282693;22;20003;-76
2021/05/25 13:21:28;;;;;;;2.50;0.70;;;;;;;17.01;45.79;100423.84;6267630;22;20086;-77
2021/05/25 13:24:07;;;;;;;2.47;0.80;;;;;;;16.82;44.94;100433.03;6274597;22;20072;-75
2021/05/25 13:26:51;;;;;;;3.20;0.60;;;;;;;16.65;45.58;100416.28;6286315;22;19996;-76
2021/05/25 13:29:38;;;;;;;0.90;0.63;;;;;;;16.35;46.39;100415.75;6288830;22;19995;-77
2021/05/25 13:32:06;;;;;;;4.55;0.70;;;;;;;16.14;47.38;100416.13;6289157;22;20011;-76
2021/05/25 13:35:08;;;;;;;;;;;;;;;;;;;;;
2021/05/25 13:37:44;;;;;;;4.82;0.80;;;;;;;15.71;48.93;100444.69;6321984;22;20010;-78
2021/05/25 13:40:49;;;;;;;;;;;;;;;;;;;;;
2021/05/25 13:43:52;;;;;;;5.28;0.60;;;;;;;15.35;50.23;100405.84;6301289;22;20034;-77
2021/05/25 13:46:32;;;;;;;6.18;0.88;;;;;;;15.33;50.60;100406.13;6292933;22;19999;-75
2021/05/25 13:49:10;;;;;;;3.15;0.60;;;;;;;15.30;50.75;100414.16;6288832;22;19995;-75
2021/05/25 13:51:48;;;;;;;2.35;0.90;;;;;;;15.42;51.00;100430.25;6295536;22;20092;-78
2021/05/25 13:54:21;;;;;;;1.35;0.88;;;;;;;15.49;51.33;100423.25;6297051;22;20003;-77
2021/05/25 13:56:51;;;;;;;2.97;0.73;;;;;;;15.64;50.14;100435.16;6250358;22;20007;-76
2021/05/25 13:59:23;;;;;;;7.38;1.05;;;;;;;15.62;49.94;100432.69;6296446;22;19999;-78